sensor_id;sensor_type;location;lat;lon;timestamp;temperature;humidity
35796;DHT22;21916;52.428;13.302;2022-09-25T00:01:36;13.90;99.90
35796;DHT22;21916;52.428;13.302;2022-09-25T00:04:02;13.80;99.90
35796;DHT22;21916;52.428;13.302;2022-09-25T00:06:30;13.80;99.90
35796;DHT22;21916;52.428;13.302;2022-09-25T00:08:59;13.90;99.90
35796;DHT22;21916;52.428;13.302;2022-09-25T00:11:29;13.90;99.90
35796;DHT22;21916;52.428;13.302;2022-09-25T00:13:56;13.90;99.90
35796;DHT22;21916;52.428;13.302;2022-09-25T00:16:27;13.80;99.90
35796;DHT22;21916;52.428;13.302;2022-09-25T00:18:54;13.90;99.90
35796;DHT22;21916;52.428;13.302;2022-09-25T00:21:39;13.90;99.90
35796;DHT22;21916;52.428;13.302;2022-09-25T00:24:07;13.90;99.90
35796;DHT22;21916;52.428;13.302;2022-09-25T00:26:37;13.90;99.90
35796;DHT22;21916;52.428;13.302;2022-09-25T00:29:05;13.90;99.90
35796;DHT22;21916;52.428;13.302;2022-09-25T00:31:31;13.90;99.90
35796;DHT22;21916;52.428;13.302;2022-09-25T00:33:59;13.90;99.90
35796;DHT22;21916;52.428;13.302;2022-09-25T00:36:28;14.00;99.90
35796;DHT22;21916;52.428;13.302;2022-09-25T00:38:55;13.90;99.90
35796;DHT22;21916;52.428;13.302;2022-09-25T00:41:22;13.80;99.90
35796;DHT22;21916;52.428;13.302;2022-09-25T00:43:55;13.90;99.90
35796;DHT22;21916;52.428;13.302;2022-09-25T00:46:37;13.80;99.90
35796;DHT22;21916;52.428;13.302;2022-09-25T00:49:11;13.70;99.90
35796;DHT22;21916;52.428;13.302;2022-09-25T00:51:46;13.70;99.90
35796;DHT22;21916;52.428;13.302;2022-09-25T00:54:19;13.80;99.90
35796;DHT22;21916;52.428;13.302;2022-09-25T00:56:48;13.80;99.90
35796;DHT22;21916;52.428;13.302;2022-09-25T00:59:25;13.80;99.90
35796;DHT22;21916;52.428;13.302;2022-09-25T01:01:53;13.80;99.90
35796;DHT22;21916;52.428;13.302;2022-09-25T01:04:20;13.70;99.90
35796;DHT22;21916;52.428;13.302;2022-09-25T01:06:49;13.70;99.90
35796;DHT22;21916;52.428;13.302;2022-09-25T01:09:15;13.80;99.90
35796;DHT22;21916;52.428;13.302;2022-09-25T01:11:43;13.70;99.90
35796;DHT22;21916;52.428;13.302;2022-09-25T01:14:10;13.70;99.90
35796;DHT22;21916;52.428;13.302;2022-09-25T01:16:45;13.70;99.90
35796;DHT22;21916;52.428;13.302;2022-09-25T01:25:14;13.70;99.90
35796;DHT22;21916;52.428;13.302;2022-09-25T01:30:41;13.50;99.90
35796;DHT22;21916;52.428;13.302;2022-09-25T01:33:16;13.60;99.90
35796;DHT22;21916;52.428;13.302;2022-09-25T01:38:43;13.70;99.90
35796;DHT22;21916;52.428;13.302;2022-09-25T01:41:21;13.70;99.90
35796;DHT22;21916;52.428;13.302;2022-09-25T01:44:00;13.70;99.90
35796;DHT22;21916;52.428;13.302;2022-09-25T01:46:31;13.70;99.90
35796;DHT22;21916;52.428;13.302;2022-09-25T01:49:34;13.70;99.90
35796;DHT22;21916;52.428;13.302;2022-09-25T01:52:06;13.70;99.90
35796;DHT22;21916;52.428;13.302;2022-09-25T01:54:36;13.70;99.90
35796;DHT22;21916;52.428;13.302;2022-09-25T01:57:27;13.70;99.90
35796;DHT22;21916;52.428;13.302;2022-09-25T02:00:08;13.70;99.90
35796;DHT22;21916;52.428;13.302;2022-09-25T02:02:54;13.70;99.90
35796;DHT22;21916;52.428;13.302;2022-09-25T02:05:35;13.60;99.90
35796;DHT22;21916;52.428;13.302;2022-09-25T02:08:07;13.60;99.90
35796;DHT22;21916;52.428;13.302;2022-09-25T02:10:43;13.60;99.90
35796;DHT22;21916;52.428;13.302;2022-09-25T02:13:15;13.40;99.90
35796;DHT22;21916;52.428;13.302;2022-09-25T02:15:56;13.50;99.90
35796;DHT22;21916;52.428;13.302;2022-09-25T02:18:23;13.40;99.90
35796;DHT22;21916;52.428;13.302;2022-09-25T02:24:12;13.40;99.90
35796;DHT22;21916;52.428;13.302;2022-09-25T02:26:42;13.30;99.90
35796;DHT22;21916;52.428;13.302;2022-09-25T02:29:09;13.40;99.90
35796;DHT22;21916;52.428;13.302;2022-09-25T02:31:39;13.40;99.90
35796;DHT22;21916;52.428;13.302;2022-09-25T02:34:07;13.40;99.90
35796;DHT22;21916;52.428;13.302;2022-09-25T02:36:33;13.30;99.90
35796;DHT22;21916;52.428;13.302;2022-09-25T02:39:00;13.20;99.90
35796;DHT22;21916;52.428;13.302;2022-09-25T02:50:48;13.30;99.90
35796;DHT22;21916;52.428;13.302;2022-09-25T02:53:41;13.20;99.90
35796;DHT22;21916;52.428;13.302;2022-09-25T02:56:11;13.10;99.90
35796;DHT22;21916;52.428;13.302;2022-09-25T02:58:41;13.30;99.90
35796;DHT22;21916;52.428;13.302;2022-09-25T03:01:13;13.20;99.90
35796;DHT22;21916;52.428;13.302;2022-09-25T03:03:43;13.30;99.90
35796;DHT22;21916;52.428;13.302;2022-09-25T03:06:10;13.30;99.90
35796;DHT22;21916;52.428;13.302;2022-09-25T03:08:39;13.20;99.90
35796;DHT22;21916;52.428;13.302;2022-09-25T03:11:13;13.20;99.90
35796;DHT22;21916;52.428;13.302;2022-09-25T03:13:39;13.20;99.90
35796;DHT22;21916;52.428;13.302;2022-09-25T03:16:11;13.30;99.90
35796;DHT22;21916;52.428;13.302;2022-09-25T03:18:39;13.30;99.90
35796;DHT22;21916;52.428;13.302;2022-09-25T03:21:05;13.30;99.90
35796;DHT22;21916;52.428;13.302;2022-09-25T03:23:31;13.30;99.90
35796;DHT22;21916;52.428;13.302;2022-09-25T03:25:57;13.30;99.90
35796;DHT22;21916;52.428;13.302;2022-09-25T03:28:25;13.40;99.90
35796;DHT22;21916;52.428;13.302;2022-09-25T03:30:57;13.30;99.90
35796;DHT22;21916;52.428;13.302;2022-09-25T03:33:23;13.30;99.90
35796;DHT22;21916;52.428;13.302;2022-09-25T03:35:59;13.30;99.90
35796;DHT22;21916;52.428;13.302;2022-09-25T03:38:25;13.30;99.90
35796;DHT22;21916;52.428;13.302;2022-09-25T03:40:51;13.30;99.90
35796;DHT22;21916;52.428;13.302;2022-09-25T03:43:17;13.30;99.90
35796;DHT22;21916;52.428;13.302;2022-09-25T03:45:43;13.30;99.90
35796;DHT22;21916;52.428;13.302;2022-09-25T03:48:10;13.30;99.90
35796;DHT22;21916;52.428;13.302;2022-09-25T03:50:36;13.20;99.90
35796;DHT22;21916;52.428;13.302;2022-09-25T03:53:04;13.10;99.90
35796;DHT22;21916;52.428;13.302;2022-09-25T03:55:30;13.10;99.90
35796;DHT22;21916;52.428;13.302;2022-09-25T03:57:56;13.30;99.90
35796;DHT22;21916;52.428;13.302;2022-09-25T04:00:21;13.20;99.90
35796;DHT22;21916;52.428;13.302;2022-09-25T04:02:48;13.20;99.90
35796;DHT22;21916;52.428;13.302;2022-09-25T04:05:15;13.20;99.90
35796;DHT22;21916;52.428;13.302;2022-09-25T04:07:44;13.20;99.90
35796;DHT22;21916;52.428;13.302;2022-09-25T04:10:10;13.20;99.90
35796;DHT22;21916;52.428;13.302;2022-09-25T04:12:37;13.20;99.90
35796;DHT22;21916;52.428;13.302;2022-09-25T04:15:04;13.30;99.90
35796;DHT22;21916;52.428;13.302;2022-09-25T04:17:31;13.20;99.90
35796;DHT22;21916;52.428;13.302;2022-09-25T04:19:57;13.20;99.90
35796;DHT22;21916;52.428;13.302;2022-09-25T04:22:25;13.20;99.90
35796;DHT22;21916;52.428;13.302;2022-09-25T04:24:51;13.10;99.90
35796;DHT22;21916;52.428;13.302;2022-09-25T04:27:19;13.10;99.90
35796;DHT22;21916;52.428;13.302;2022-09-25T04:29:45;13.10;99.90
35796;DHT22;21916;52.428;13.302;2022-09-25T04:32:12;13.00;99.90
35796;DHT22;21916;52.428;13.302;2022-09-25T04:34:57;13.00;99.90
35796;DHT22;21916;52.428;13.302;2022-09-25T04:37:23;13.10;99.90
35796;DHT22;21916;52.428;13.302;2022-09-25T04:39:57;13.10;99.90
35796;DHT22;21916;52.428;13.302;2022-09-25T04:42:24;13.00;99.90
35796;DHT22;21916;52.428;13.302;2022-09-25T04:44:51;12.90;99.90
35796;DHT22;21916;52.428;13.302;2022-09-25T04:47:21;12.90;99.90
35796;DHT22;21916;52.428;13.302;2022-09-25T04:49:48;12.90;99.90
35796;DHT22;21916;52.428;13.302;2022-09-25T04:52:14;12.90;99.90
35796;DHT22;21916;52.428;13.302;2022-09-25T04:54:42;12.90;99.90
35796;DHT22;21916;52.428;13.302;2022-09-25T04:57:28;12.80;99.90
35796;DHT22;21916;52.428;13.302;2022-09-25T04:59:54;12.80;99.90
35796;DHT22;21916;52.428;13.302;2022-09-25T05:02:25;12.80;99.90
35796;DHT22;21916;52.428;13.302;2022-09-25T05:04:52;12.80;99.90
35796;DHT22;21916;52.428;13.302;2022-09-25T05:07:18;12.80;99.90
35796;DHT22;21916;52.428;13.302;2022-09-25T05:09:43;12.80;99.90
35796;DHT22;21916;52.428;13.302;2022-09-25T05:12:09;12.80;99.90
35796;DHT22;21916;52.428;13.302;2022-09-25T05:14:35;12.80;99.90
35796;DHT22;21916;52.428;13.302;2022-09-25T05:17:05;12.80;99.90
35796;DHT22;21916;52.428;13.302;2022-09-25T05:19:32;12.80;99.90
35796;DHT22;21916;52.428;13.302;2022-09-25T05:21:59;12.80;99.90
35796;DHT22;21916;52.428;13.302;2022-09-25T05:24:25;12.80;99.90
35796;DHT22;21916;52.428;13.302;2022-09-25T05:26:51;12.80;99.90
35796;DHT22;21916;52.428;13.302;2022-09-25T05:29:26;12.70;99.90
35796;DHT22;21916;52.428;13.302;2022-09-25T05:31:53;12.80;99.90
35796;DHT22;21916;52.428;13.302;2022-09-25T05:34:21;12.70;99.90
35796;DHT22;21916;52.428;13.302;2022-09-25T05:36:47;12.80;99.90
35796;DHT22;21916;52.428;13.302;2022-09-25T05:39:12;12.90;99.90
35796;DHT22;21916;52.428;13.302;2022-09-25T05:41:39;13.00;99.90
35796;DHT22;21916;52.428;13.302;2022-09-25T05:44:05;13.10;99.90
35796;DHT22;21916;52.428;13.302;2022-09-25T05:46:35;13.20;99.90
35796;DHT22;21916;52.428;13.302;2022-09-25T05:49:01;13.30;99.90
35796;DHT22;21916;52.428;13.302;2022-09-25T05:51:28;13.40;99.90
35796;DHT22;21916;52.428;13.302;2022-09-25T05:53:57;13.60;99.90
35796;DHT22;21916;52.428;13.302;2022-09-25T05:56:25;13.40;99.90
35796;DHT22;21916;52.428;13.302;2022-09-25T05:58:51;13.30;99.90
35796;DHT22;21916;52.428;13.302;2022-09-25T06:01:18;13.30;99.90
35796;DHT22;21916;52.428;13.302;2022-09-25T06:03:44;13.40;99.90
35796;DHT22;21916;52.428;13.302;2022-09-25T06:06:10;13.40;99.90
35796;DHT22;21916;52.428;13.302;2022-09-25T06:08:36;13.50;99.90
35796;DHT22;21916;52.428;13.302;2022-09-25T06:11:04;13.50;99.90
35796;DHT22;21916;52.428;13.302;2022-09-25T06:13:31;13.60;99.90
35796;DHT22;21916;52.428;13.302;2022-09-25T06:16:02;13.70;99.90
35796;DHT22;21916;52.428;13.302;2022-09-25T06:18:30;13.80;99.90
35796;DHT22;21916;52.428;13.302;2022-09-25T06:21:00;13.90;99.90
35796;DHT22;21916;52.428;13.302;2022-09-25T06:23:27;14.10;99.90
35796;DHT22;21916;52.428;13.302;2022-09-25T06:26:02;14.10;99.90
35796;DHT22;21916;52.428;13.302;2022-09-25T06:28:28;14.10;99.90
35796;DHT22;21916;52.428;13.302;2022-09-25T06:30:54;14.00;99.90
35796;DHT22;21916;52.428;13.302;2022-09-25T06:33:20;14.10;99.90
35796;DHT22;21916;52.428;13.302;2022-09-25T06:35:47;14.00;99.90
35796;DHT22;21916;52.428;13.302;2022-09-25T06:38:16;14.00;99.90
35796;DHT22;21916;52.428;13.302;2022-09-25T06:40:46;13.80;99.90
35796;DHT22;21916;52.428;13.302;2022-09-25T06:43:14;13.80;99.90
35796;DHT22;21916;52.428;13.302;2022-09-25T06:45:41;13.80;99.90
35796;DHT22;21916;52.428;13.302;2022-09-25T06:48:09;13.90;99.90
35796;DHT22;21916;52.428;13.302;2022-09-25T06:50:43;14.00;99.90
35796;DHT22;21916;52.428;13.302;2022-09-25T06:53:13;14.20;99.90
35796;DHT22;21916;52.428;13.302;2022-09-25T06:55:40;14.10;99.90
35796;DHT22;21916;52.428;13.302;2022-09-25T06:58:09;14.10;99.90
35796;DHT22;21916;52.428;13.302;2022-09-25T07:00:35;14.10;99.90
35796;DHT22;21916;52.428;13.302;2022-09-25T07:03:01;14.10;99.90
35796;DHT22;21916;52.428;13.302;2022-09-25T07:05:46;14.00;99.90
35796;DHT22;21916;52.428;13.302;2022-09-25T07:08:14;14.00;99.90
35796;DHT22;21916;52.428;13.302;2022-09-25T07:13:15;14.10;99.90
35796;DHT22;21916;52.428;13.302;2022-09-25T07:16:06;14.30;99.90
35796;DHT22;21916;52.428;13.302;2022-09-25T07:18:33;14.20;99.90
35796;DHT22;21916;52.428;13.302;2022-09-25T07:21:02;14.30;99.90
35796;DHT22;21916;52.428;13.302;2022-09-25T07:23:28;14.20;99.90
35796;DHT22;21916;52.428;13.302;2022-09-25T07:26:07;14.30;99.90
35796;DHT22;21916;52.428;13.302;2022-09-25T07:28:34;14.40;99.90
35796;DHT22;21916;52.428;13.302;2022-09-25T07:31:10;14.40;99.90
35796;DHT22;21916;52.428;13.302;2022-09-25T07:33:36;14.50;99.90
35796;DHT22;21916;52.428;13.302;2022-09-25T07:36:03;14.60;99.90
35796;DHT22;21916;52.428;13.302;2022-09-25T07:38:29;14.60;99.90
35796;DHT22;21916;52.428;13.302;2022-09-25T07:40:55;14.70;99.90
35796;DHT22;21916;52.428;13.302;2022-09-25T07:43:21;14.80;99.90
35796;DHT22;21916;52.428;13.302;2022-09-25T07:45:50;14.70;99.90
35796;DHT22;21916;52.428;13.302;2022-09-25T07:48:18;14.90;99.90
35796;DHT22;21916;52.428;13.302;2022-09-25T07:50:46;15.00;99.90
35796;DHT22;21916;52.428;13.302;2022-09-25T07:53:15;15.00;99.90
35796;DHT22;21916;52.428;13.302;2022-09-25T07:55:45;15.20;99.90
35796;DHT22;21916;52.428;13.302;2022-09-25T07:58:12;15.40;99.90
35796;DHT22;21916;52.428;13.302;2022-09-25T08:00:39;15.60;99.90
35796;DHT22;21916;52.428;13.302;2022-09-25T08:03:06;15.70;99.90
35796;DHT22;21916;52.428;13.302;2022-09-25T08:05:33;15.60;99.90
35796;DHT22;21916;52.428;13.302;2022-09-25T08:07:59;15.70;99.90
35796;DHT22;21916;52.428;13.302;2022-09-25T08:10:25;15.70;99.90
35796;DHT22;21916;52.428;13.302;2022-09-25T08:12:51;15.70;99.90
35796;DHT22;21916;52.428;13.302;2022-09-25T08:15:17;15.90;99.90
35796;DHT22;21916;52.428;13.302;2022-09-25T08:17:43;15.90;99.90
35796;DHT22;21916;52.428;13.302;2022-09-25T08:20:09;15.90;99.90
35796;DHT22;21916;52.428;13.302;2022-09-25T08:22:35;15.80;99.90
35796;DHT22;21916;52.428;13.302;2022-09-25T08:25:01;16.00;99.90
35796;DHT22;21916;52.428;13.302;2022-09-25T08:27:28;16.30;99.90
35796;DHT22;21916;52.428;13.302;2022-09-25T08:29:54;16.50;99.90
35796;DHT22;21916;52.428;13.302;2022-09-25T08:32:20;16.30;99.90
35796;DHT22;21916;52.428;13.302;2022-09-25T08:34:47;16.30;99.90
35796;DHT22;21916;52.428;13.302;2022-09-25T08:37:14;16.50;99.90
35796;DHT22;21916;52.428;13.302;2022-09-25T08:39:41;16.60;99.90
35796;DHT22;21916;52.428;13.302;2022-09-25T08:42:18;16.80;99.90
35796;DHT22;21916;52.428;13.302;2022-09-25T08:44:51;16.90;99.90
35796;DHT22;21916;52.428;13.302;2022-09-25T08:47:38;16.80;99.90
35796;DHT22;21916;52.428;13.302;2022-09-25T08:50:25;17.00;99.90
35796;DHT22;21916;52.428;13.302;2022-09-25T08:53:03;16.80;99.90
35796;DHT22;21916;52.428;13.302;2022-09-25T08:55:34;17.00;99.90
35796;DHT22;21916;52.428;13.302;2022-09-25T08:58:32;17.20;99.90
35796;DHT22;21916;52.428;13.302;2022-09-25T09:01:22;17.40;99.90
35796;DHT22;21916;52.428;13.302;2022-09-25T09:04:23;17.60;99.90
35796;DHT22;21916;52.428;13.302;2022-09-25T09:06:57;17.60;99.90
35796;DHT22;21916;52.428;13.302;2022-09-25T09:09:29;17.50;99.90
35796;DHT22;21916;52.428;13.302;2022-09-25T09:12:05;17.40;99.90
35796;DHT22;21916;52.428;13.302;2022-09-25T09:14:40;17.70;99.90
35796;DHT22;21916;52.428;13.302;2022-09-25T09:17:23;17.60;99.90
35796;DHT22;21916;52.428;13.302;2022-09-25T09:19:59;17.80;99.90
35796;DHT22;21916;52.428;13.302;2022-09-25T09:22:34;17.70;99.90
35796;DHT22;21916;52.428;13.302;2022-09-25T09:30:18;18.10;99.90
35796;DHT22;21916;52.428;13.302;2022-09-25T09:35:47;18.30;99.90
35796;DHT22;21916;52.428;13.302;2022-09-25T09:42:09;18.90;99.90
35796;DHT22;21916;52.428;13.302;2022-09-25T09:49:52;19.50;99.90
35796;DHT22;21916;52.428;13.302;2022-09-25T09:52:22;19.30;99.90
35796;DHT22;21916;52.428;13.302;2022-09-25T09:55:05;19.30;99.90
35796;DHT22;21916;52.428;13.302;2022-09-25T09:57:44;19.30;99.90
35796;DHT22;21916;52.428;13.302;2022-09-25T10:00:14;19.60;99.90
35796;DHT22;21916;52.428;13.302;2022-09-25T10:05:34;20.30;99.90
35796;DHT22;21916;52.428;13.302;2022-09-25T10:08:01;20.40;99.90
35796;DHT22;21916;52.428;13.302;2022-09-25T10:10:34;20.30;99.90
35796;DHT22;21916;52.428;13.302;2022-09-25T10:13:07;20.40;99.90
35796;DHT22;21916;52.428;13.302;2022-09-25T10:19:00;20.70;99.90
35796;DHT22;21916;52.428;13.302;2022-09-25T10:21:36;20.80;99.90
35796;DHT22;21916;52.428;13.302;2022-09-25T10:24:03;20.70;99.90
35796;DHT22;21916;52.428;13.302;2022-09-25T10:26:33;20.80;99.90
35796;DHT22;21916;52.428;13.302;2022-09-25T10:29:25;20.60;99.90
35796;DHT22;21916;52.428;13.302;2022-09-25T10:32:00;20.90;99.90
35796;DHT22;21916;52.428;13.302;2022-09-25T10:34:26;21.50;99.90
35796;DHT22;21916;52.428;13.302;2022-09-25T10:36:54;21.60;99.40
35796;DHT22;21916;52.428;13.302;2022-09-25T10:39:40;21.10;99.90
35796;DHT22;21916;52.428;13.302;2022-09-25T10:42:39;21.40;99.70
35796;DHT22;21916;52.428;13.302;2022-09-25T10:47:49;22.20;99.10
35796;DHT22;21916;52.428;13.302;2022-09-25T10:50:34;22.20;98.30
35796;DHT22;21916;52.428;13.302;2022-09-25T10:53:03;22.40;98.90
35796;DHT22;21916;52.428;13.302;2022-09-25T10:55:34;22.70;98.40
35796;DHT22;21916;52.428;13.302;2022-09-25T11:00:54;22.50;98.20
35796;DHT22;21916;52.428;13.302;2022-09-25T11:03:32;22.60;97.40
35796;DHT22;21916;52.428;13.302;2022-09-25T11:06:05;22.50;97.00
35796;DHT22;21916;52.428;13.302;2022-09-25T11:08:35;21.80;97.50
35796;DHT22;21916;52.428;13.302;2022-09-25T11:11:04;22.00;97.90
35796;DHT22;21916;52.428;13.302;2022-09-25T11:13:45;22.30;97.90
35796;DHT22;21916;52.428;13.302;2022-09-25T11:16:12;22.60;97.30
35796;DHT22;21916;52.428;13.302;2022-09-25T11:18:42;22.50;97.40
35796;DHT22;21916;52.428;13.302;2022-09-25T11:21:39;22.20;97.80
35796;DHT22;21916;52.428;13.302;2022-09-25T11:24:19;22.70;98.30
35796;DHT22;21916;52.428;13.302;2022-09-25T11:32:22;23.60;94.60
35796;DHT22;21916;52.428;13.302;2022-09-25T11:35:14;24.20;94.80
35796;DHT22;21916;52.428;13.302;2022-09-25T11:41:23;27.00;91.40
35796;DHT22;21916;52.428;13.302;2022-09-25T11:49:21;30.50;85.50
35796;DHT22;21916;52.428;13.302;2022-09-25T11:58:08;34.10;69.40
35796;DHT22;21916;52.428;13.302;2022-09-25T12:06:41;34.00;65.50
35796;DHT22;21916;52.428;13.302;2022-09-25T12:12:16;33.90;65.50
35796;DHT22;21916;52.428;13.302;2022-09-25T12:15:11;34.10;64.40
35796;DHT22;21916;52.428;13.302;2022-09-25T12:20:46;34.70;64.10
35796;DHT22;21916;52.428;13.302;2022-09-25T12:29:30;36.70;59.00
35796;DHT22;21916;52.428;13.302;2022-09-25T12:32:10;36.40;59.00
35796;DHT22;21916;52.428;13.302;2022-09-25T12:34:46;35.70;56.70
35796;DHT22;21916;52.428;13.302;2022-09-25T12:37:43;35.40;57.30
35796;DHT22;21916;52.428;13.302;2022-09-25T12:46:08;33.20;56.20
35796;DHT22;21916;52.428;13.302;2022-09-25T12:48:48;31.40;58.20
35796;DHT22;21916;52.428;13.302;2022-09-25T12:51:41;30.70;60.00
35796;DHT22;21916;52.428;13.302;2022-09-25T12:59:27;29.20;62.70
35796;DHT22;21916;52.428;13.302;2022-09-25T13:02:07;28.50;62.60
35796;DHT22;21916;52.428;13.302;2022-09-25T13:05:10;27.60;65.10
35796;DHT22;21916;52.428;13.302;2022-09-25T13:10:25;27.30;67.80
35796;DHT22;21916;52.428;13.302;2022-09-25T13:12:55;27.80;66.50
35796;DHT22;21916;52.428;13.302;2022-09-25T13:15:34;27.30;67.10
35796;DHT22;21916;52.428;13.302;2022-09-25T13:18:15;26.80;67.90
35796;DHT22;21916;52.428;13.302;2022-09-25T13:20:50;26.00;69.50
35796;DHT22;21916;52.428;13.302;2022-09-25T13:23:27;25.70;70.40
35796;DHT22;21916;52.428;13.302;2022-09-25T13:26:08;25.40;70.60
35796;DHT22;21916;52.428;13.302;2022-09-25T13:28:37;25.60;71.60
35796;DHT22;21916;52.428;13.302;2022-09-25T13:31:09;26.00;70.80
35796;DHT22;21916;52.428;13.302;2022-09-25T13:33:54;25.80;71.20
35796;DHT22;21916;52.428;13.302;2022-09-25T13:38:56;26.00;71.20
35796;DHT22;21916;52.428;13.302;2022-09-25T13:42:03;25.90;72.20
35796;DHT22;21916;52.428;13.302;2022-09-25T14:02:54;24.10;76.20
35796;DHT22;21916;52.428;13.302;2022-09-25T14:05:30;23.90;77.50
35796;DHT22;21916;52.428;13.302;2022-09-25T14:08:13;23.80;78.00
35796;DHT22;21916;52.428;13.302;2022-09-25T14:10:46;23.80;77.20
35796;DHT22;21916;52.428;13.302;2022-09-25T14:13:15;23.60;77.40
35796;DHT22;21916;52.428;13.302;2022-09-25T14:15:43;23.60;78.20
35796;DHT22;21916;52.428;13.302;2022-09-25T14:20:46;25.10;77.10
35796;DHT22;21916;52.428;13.302;2022-09-25T14:23:34;25.80;75.80
35796;DHT22;21916;52.428;13.302;2022-09-25T14:26:23;26.20;75.50
35796;DHT22;21916;52.428;13.302;2022-09-25T14:28:51;26.00;74.90
35796;DHT22;21916;52.428;13.302;2022-09-25T14:40:30;21.80;87.20
35796;DHT22;21916;52.428;13.302;2022-09-25T14:48:39;21.00;90.80
35796;DHT22;21916;52.428;13.302;2022-09-25T14:51:11;21.10;90.70
35796;DHT22;21916;52.428;13.302;2022-09-25T14:53:50;20.90;90.90
35796;DHT22;21916;52.428;13.302;2022-09-25T14:56:19;20.60;91.20
35796;DHT22;21916;52.428;13.302;2022-09-25T14:58:49;20.40;92.00
35796;DHT22;21916;52.428;13.302;2022-09-25T15:01:29;20.50;92.30
35796;DHT22;21916;52.428;13.302;2022-09-25T15:04:04;20.40;92.50
35796;DHT22;21916;52.428;13.302;2022-09-25T15:06:33;19.90;93.00
35796;DHT22;21916;52.428;13.302;2022-09-25T15:09:00;19.70;93.80
35796;DHT22;21916;52.428;13.302;2022-09-25T15:11:39;19.70;94.40
35796;DHT22;21916;52.428;13.302;2022-09-25T15:14:15;19.50;94.80
35796;DHT22;21916;52.428;13.302;2022-09-25T15:16:41;19.30;95.60
35796;DHT22;21916;52.428;13.302;2022-09-25T15:19:30;19.30;96.40
35796;DHT22;21916;52.428;13.302;2022-09-25T15:21:58;19.00;97.40
35796;DHT22;21916;52.428;13.302;2022-09-25T15:24:29;18.90;98.00
35796;DHT22;21916;52.428;13.302;2022-09-25T15:27:05;18.70;98.90
35796;DHT22;21916;52.428;13.302;2022-09-25T15:29:36;18.60;99.90
35796;DHT22;21916;52.428;13.302;2022-09-25T15:32:03;18.40;99.90
35796;DHT22;21916;52.428;13.302;2022-09-25T15:34:33;18.20;99.90
35796;DHT22;21916;52.428;13.302;2022-09-25T15:37:24;18.40;99.90
35796;DHT22;21916;52.428;13.302;2022-09-25T15:39:52;18.70;99.90
35796;DHT22;21916;52.428;13.302;2022-09-25T15:42:19;19.10;99.90
35796;DHT22;21916;52.428;13.302;2022-09-25T15:44:45;19.40;99.90
35796;DHT22;21916;52.428;13.302;2022-09-25T15:47:47;19.40;99.90
35796;DHT22;21916;52.428;13.302;2022-09-25T15:50:21;20.20;99.90
35796;DHT22;21916;52.428;13.302;2022-09-25T15:52:52;20.60;99.00
35796;DHT22;21916;52.428;13.302;2022-09-25T15:55:19;20.80;98.50
35796;DHT22;21916;52.428;13.302;2022-09-25T15:57:46;20.40;98.40
35796;DHT22;21916;52.428;13.302;2022-09-25T16:00:24;20.20;99.20
35796;DHT22;21916;52.428;13.302;2022-09-25T16:05:56;20.00;99.20
35796;DHT22;21916;52.428;13.302;2022-09-25T16:13:43;18.60;99.90
35796;DHT22;21916;52.428;13.302;2022-09-25T16:21:47;18.20;99.90
35796;DHT22;21916;52.428;13.302;2022-09-25T16:24:25;18.00;99.90
35796;DHT22;21916;52.428;13.302;2022-09-25T16:26:58;17.80;99.90
35796;DHT22;21916;52.428;13.302;2022-09-25T16:29:27;17.70;99.90
35796;DHT22;21916;52.428;13.302;2022-09-25T16:32:07;17.40;99.90
35796;DHT22;21916;52.428;13.302;2022-09-25T16:34:38;17.40;99.90
35796;DHT22;21916;52.428;13.302;2022-09-25T16:37:15;17.30;99.90
35796;DHT22;21916;52.428;13.302;2022-09-25T16:39:43;17.20;99.90
35796;DHT22;21916;52.428;13.302;2022-09-25T16:42:29;17.10;99.90
35796;DHT22;21916;52.428;13.302;2022-09-25T16:47:42;16.90;99.90
35796;DHT22;21916;52.428;13.302;2022-09-25T16:50:09;16.90;99.90
35796;DHT22;21916;52.428;13.302;2022-09-25T16:52:35;16.80;99.90
35796;DHT22;21916;52.428;13.302;2022-09-25T16:55:04;16.80;99.90
35796;DHT22;21916;52.428;13.302;2022-09-25T16:57:33;16.90;99.90
35796;DHT22;21916;52.428;13.302;2022-09-25T17:00:00;16.90;99.90
35796;DHT22;21916;52.428;13.302;2022-09-25T17:02:31;16.80;99.90
35796;DHT22;21916;52.428;13.302;2022-09-25T17:05:05;16.80;99.90
35796;DHT22;21916;52.428;13.302;2022-09-25T17:07:31;16.80;99.90
35796;DHT22;21916;52.428;13.302;2022-09-25T17:09:57;16.70;99.90
35796;DHT22;21916;52.428;13.302;2022-09-25T17:12:25;16.70;99.90
35796;DHT22;21916;52.428;13.302;2022-09-25T17:14:52;16.70;99.90
35796;DHT22;21916;52.428;13.302;2022-09-25T17:17:20;16.70;99.90
35796;DHT22;21916;52.428;13.302;2022-09-25T17:19:48;16.60;99.90
35796;DHT22;21916;52.428;13.302;2022-09-25T17:22:15;16.60;99.90
35796;DHT22;21916;52.428;13.302;2022-09-25T17:24:41;16.50;99.90
35796;DHT22;21916;52.428;13.302;2022-09-25T17:27:14;16.50;99.90
35796;DHT22;21916;52.428;13.302;2022-09-25T17:29:41;16.50;99.90
35796;DHT22;21916;52.428;13.302;2022-09-25T17:32:12;16.40;99.90
35796;DHT22;21916;52.428;13.302;2022-09-25T17:34:41;16.30;99.90
35796;DHT22;21916;52.428;13.302;2022-09-25T17:37:07;16.30;99.90
35796;DHT22;21916;52.428;13.302;2022-09-25T17:39:33;16.20;99.90
35796;DHT22;21916;52.428;13.302;2022-09-25T17:42:00;16.10;99.90
35796;DHT22;21916;52.428;13.302;2022-09-25T17:44:27;16.10;99.90
35796;DHT22;21916;52.428;13.302;2022-09-25T17:46:53;16.10;99.90
35796;DHT22;21916;52.428;13.302;2022-09-25T17:49:21;16.10;99.90
35796;DHT22;21916;52.428;13.302;2022-09-25T17:51:48;16.00;99.90
35796;DHT22;21916;52.428;13.302;2022-09-25T17:54:14;15.90;99.90
35796;DHT22;21916;52.428;13.302;2022-09-25T17:56:45;15.80;99.90
35796;DHT22;21916;52.428;13.302;2022-09-25T17:59:11;15.80;99.90
35796;DHT22;21916;52.428;13.302;2022-09-25T18:01:38;15.70;99.90
35796;DHT22;21916;52.428;13.302;2022-09-25T18:04:19;15.70;99.90
35796;DHT22;21916;52.428;13.302;2022-09-25T18:06:46;15.60;99.90
35796;DHT22;21916;52.428;13.302;2022-09-25T18:09:12;15.60;99.90
35796;DHT22;21916;52.428;13.302;2022-09-25T18:11:38;15.50;99.90
35796;DHT22;21916;52.428;13.302;2022-09-25T18:14:09;15.50;99.90
35796;DHT22;21916;52.428;13.302;2022-09-25T18:16:35;15.50;99.90
35796;DHT22;21916;52.428;13.302;2022-09-25T18:19:01;15.40;99.90
35796;DHT22;21916;52.428;13.302;2022-09-25T18:21:48;15.40;99.90
35796;DHT22;21916;52.428;13.302;2022-09-25T18:24:33;15.30;99.90
35796;DHT22;21916;52.428;13.302;2022-09-25T18:26:59;15.30;99.90